createdAt,value
2018-09-24T00:00:20.561Z,26.97
2018-09-24T00:02:49.692Z,26.77
2018-09-24T00:05:19.892Z,32.67
2018-09-24T00:07:49.093Z,34.63
2018-09-24T00:10:18.325Z,32.47
2018-09-24T00:12:47.644Z,24.03
2018-09-24T00:15:16.722Z,32.63
2018-09-24T00:17:46.936Z,22.27
2018-09-24T00:20:16.286Z,20.87
2018-09-24T00:22:45.439Z,20.03
2018-09-24T00:25:14.761Z,19.90
2018-09-24T00:27:44.162Z,19.93
2018-09-24T00:30:14.795Z,15.97
2018-09-24T00:32:44.229Z,16.60
2018-09-24T00:35:13.471Z,17.23
2018-09-24T00:37:42.691Z,14.47
2018-09-24T00:40:12.346Z,13.97
2018-09-24T00:42:41.593Z,15.43
2018-09-24T00:45:10.917Z,15.47
2018-09-24T00:47:40.108Z,11.67
2018-09-24T00:50:09.183Z,13.10
2018-09-24T00:52:38.566Z,14.70
2018-09-24T00:55:07.777Z,12.33
2018-09-24T00:57:37.165Z,13.00
2018-09-24T01:00:06.485Z,12.03
2018-09-24T01:02:35.712Z,13.00
2018-09-24T01:05:04.998Z,13.00
2018-09-24T01:07:34.160Z,16.23
2018-09-24T01:10:04.428Z,10.40
2018-09-24T01:12:33.525Z,11.00
2018-09-24T01:15:02.820Z,9.80
2018-09-24T01:17:31.855Z,9.50
2018-09-24T01:20:02.235Z,9.03
2018-09-24T01:22:31.750Z,8.07
2018-09-24T01:25:00.793Z,11.00
2018-09-24T01:27:29.913Z,15.70
2018-09-24T01:29:59.007Z,12.40
2018-09-24T01:32:28.688Z,12.43
2018-09-24T01:34:59.151Z,13.40
2018-09-24T01:37:28.365Z,12.57
2018-09-24T01:39:57.716Z,15.27
2018-09-24T01:42:26.732Z,11.07
2018-09-24T01:44:55.960Z,11.67
2018-09-24T01:47:25.062Z,10.37
2018-09-24T01:49:54.259Z,12.23
2018-09-24T01:52:23.357Z,11.03
2018-09-24T01:54:53.261Z,10.30
2018-09-24T01:57:22.463Z,7.93
2018-09-24T01:59:55.962Z,7.27
2018-09-24T02:02:25.058Z,7.60
2018-09-24T02:04:54.125Z,7.67
2018-09-24T02:07:23.241Z,8.97
2018-09-24T02:09:52.388Z,9.57
2018-09-24T02:12:21.523Z,7.97
2018-09-24T02:14:50.943Z,8.57
2018-09-24T02:17:21.779Z,12.33
2018-09-24T02:19:52.210Z,6.57
2018-09-24T02:22:26.462Z,8.50
2018-09-24T02:24:57.367Z,8.13
2018-09-24T02:27:26.563Z,7.40
2018-09-24T02:29:55.686Z,7.27
2018-09-24T02:32:24.965Z,14.03
2018-09-24T02:34:56.417Z,8.03
2018-09-24T02:37:28.274Z,8.73
2018-09-24T02:39:57.327Z,11.20
2018-09-24T02:42:26.567Z,7.60
2018-09-24T02:44:56.790Z,11.83
2018-09-24T02:47:30.563Z,12.23
2018-09-24T02:50:00.614Z,9.57
2018-09-24T02:52:30.114Z,10.20
2018-09-24T02:54:59.347Z,11.77
2018-09-24T02:57:28.703Z,13.43
2018-09-24T02:59:57.846Z,12.10
2018-09-24T03:02:26.905Z,17.70
2018-09-24T03:04:59.886Z,16.07
2018-09-24T03:07:29.905Z,16.83
2018-09-24T03:09:59.248Z,12.70
2018-09-24T03:12:28.407Z,12.53
2018-09-24T03:14:58.418Z,18.70
2018-09-24T03:17:28.867Z,21.47
2018-09-24T03:19:58.572Z,21.97
2018-09-24T03:22:27.624Z,21.83
2018-09-24T03:24:57.167Z,23.87
2018-09-24T03:27:26.343Z,23.73
2018-09-24T03:29:56.716Z,20.23
2018-09-24T03:32:25.863Z,23.60
2018-09-24T03:34:56.412Z,24.10
2018-09-24T03:37:25.618Z,24.20
2018-09-24T03:39:55.144Z,24.17
2018-09-24T03:42:24.316Z,21.73
2018-09-24T03:44:53.471Z,19.07
2018-09-24T03:47:22.721Z,14.47
2018-09-24T03:49:51.860Z,20.50
2018-09-24T03:52:21.192Z,13.23
2018-09-24T03:54:51.848Z,17.90
2018-09-24T03:57:22.384Z,16.53
2018-09-24T03:59:51.427Z,16.07
2018-09-24T04:02:26.408Z,23.63
2018-09-24T04:05:00.955Z,21.93
2018-09-24T04:07:35.481Z,13.70
2018-09-24T04:10:11.063Z,15.63
2018-09-24T04:12:45.565Z,15.40
2018-09-24T04:15:20.273Z,10.90
2018-09-24T04:17:55.065Z,14.30
2018-09-24T04:20:29.380Z,12.30
2018-09-24T04:23:03.897Z,9.67
2018-09-24T04:25:38.477Z,17.40
2018-09-24T04:28:13.082Z,13.17
2018-09-24T04:30:47.452Z,18.10
2018-09-24T04:33:22.096Z,22.63
2018-09-24T04:35:56.428Z,18.37
2018-09-24T04:38:31.051Z,15.40
2018-09-24T04:41:05.522Z,14.73
2018-09-24T04:43:39.975Z,17.23
2018-09-24T04:46:14.604Z,12.90
2018-09-24T04:48:49.223Z,11.90
2018-09-24T04:51:23.985Z,12.87
2018-09-24T04:53:58.684Z,11.17
2018-09-24T04:56:34.858Z,10.63
2018-09-24T04:59:10.065Z,10.20
2018-09-24T05:01:45.388Z,16.20
2018-09-24T05:04:23.672Z,13.97
2018-09-24T05:06:58.272Z,10.63
2018-09-24T05:09:32.992Z,12.40
2018-09-24T05:12:07.823Z,12.60
2018-09-24T05:14:42.362Z,10.27
2018-09-24T05:17:16.952Z,13.23
2018-09-24T05:19:51.723Z,17.83
2018-09-24T05:22:26.317Z,11.03
2018-09-24T05:25:00.844Z,19.70
2018-09-24T05:27:35.356Z,13.43
2018-09-24T05:30:09.995Z,10.60
2018-09-24T05:32:44.455Z,12.97
2018-09-24T05:35:18.926Z,12.20
2018-09-24T05:37:53.523Z,10.33
2018-09-24T05:40:28.152Z,11.40
2018-09-24T05:43:02.695Z,13.93
2018-09-24T05:45:37.204Z,17.87
2018-09-24T05:48:11.679Z,15.40
2018-09-24T05:50:46.717Z,13.83
2018-09-24T05:53:21.312Z,13.93
2018-09-24T05:55:55.947Z,12.90
2018-09-24T05:58:31.010Z,9.60
2018-09-24T06:01:05.797Z,12.77
2018-09-24T06:03:41.309Z,13.77
2018-09-24T06:06:16.898Z,11.80
2018-09-24T06:08:51.644Z,16.00
2018-09-24T06:11:26.303Z,12.60
2018-09-24T06:14:00.908Z,16.87
2018-09-24T06:16:35.260Z,13.37
2018-09-24T06:19:09.698Z,11.00
2018-09-24T06:21:43.868Z,15.40
2018-09-24T06:24:18.374Z,14.27
2018-09-24T06:26:52.842Z,19.83
2018-09-24T06:29:27.355Z,12.13
2018-09-24T06:32:02.387Z,13.47
2018-09-24T06:34:40.038Z,13.67
2018-09-24T06:37:14.404Z,17.90
2018-09-24T06:39:48.791Z,16.50
2018-09-24T06:42:23.122Z,11.90
2018-09-24T06:44:57.492Z,12.33
2018-09-24T06:47:31.889Z,12.00
2018-09-24T06:50:06.551Z,17.40
2018-09-24T06:52:41.449Z,19.73
2018-09-24T06:55:15.943Z,17.03
2018-09-24T06:57:50.258Z,16.13
2018-09-24T07:00:24.718Z,14.13
2018-09-24T07:02:59.298Z,15.97
2018-09-24T07:05:33.820Z,14.37
2018-09-24T07:08:08.424Z,16.43
2018-09-24T07:10:42.901Z,22.17
2018-09-24T07:13:17.600Z,12.93
2018-09-24T07:15:52.059Z,13.67
2018-09-24T07:18:26.604Z,13.70
2018-09-24T07:21:01.122Z,16.17
2018-09-24T07:23:35.421Z,12.90
2018-09-24T07:26:09.805Z,12.40
2018-09-24T07:28:44.225Z,14.53
2018-09-24T07:31:19.509Z,17.70
2018-09-24T07:33:53.793Z,15.13
2018-09-24T07:36:28.236Z,14.27
2018-09-24T07:39:02.957Z,16.37
2018-09-24T07:41:37.370Z,14.50
2018-09-24T07:44:11.952Z,15.27
2018-09-24T07:46:46.634Z,18.73
2018-09-24T07:49:21.253Z,16.00
2018-09-24T07:51:55.994Z,22.23
2018-09-24T07:54:30.573Z,13.57
2018-09-24T07:57:04.902Z,18.37
2018-09-24T07:59:39.576Z,27.83
2018-09-24T08:02:14.078Z,19.23
2018-09-24T08:04:48.597Z,17.27
2018-09-24T08:07:22.989Z,17.83
2018-09-24T08:09:57.463Z,16.00
2018-09-24T08:12:31.931Z,7.00
2018-09-24T08:15:06.427Z,33.47
2018-09-24T08:17:40.920Z,8.13
2018-09-24T08:20:15.603Z,10.43
2018-09-24T08:22:50.348Z,7.67
2018-09-24T08:25:24.872Z,8.20
2018-09-24T08:27:59.261Z,8.57
2018-09-24T08:30:33.822Z,14.47
2018-09-24T08:33:08.663Z,10.13
2018-09-24T08:35:43.029Z,11.00
2018-09-24T08:38:17.499Z,5.10
2018-09-24T08:40:51.945Z,11.67
2018-09-24T08:43:26.339Z,7.07
2018-09-24T08:46:01.024Z,11.07
2018-09-24T08:48:35.364Z,9.00
2018-09-24T08:51:09.886Z,11.90
2018-09-24T08:53:44.552Z,11.10
2018-09-24T08:56:19.046Z,9.20
2018-09-24T08:58:53.729Z,5.27
2018-09-24T09:01:28.905Z,5.77
2018-09-24T09:04:03.344Z,6.00
2018-09-24T09:06:37.782Z,6.40
2018-09-24T09:09:15.784Z,6.60
2018-09-24T09:11:50.292Z,6.80
2018-09-24T09:14:24.958Z,7.60
2018-09-24T09:17:03.147Z,4.90
2018-09-24T09:19:37.651Z,8.37
2018-09-24T09:22:12.135Z,6.03
2018-09-24T09:24:46.585Z,13.80
2018-09-24T09:27:20.995Z,12.40
2018-09-24T09:29:57.187Z,13.20
2018-09-24T09:32:32.012Z,6.77
2018-09-24T09:35:07.387Z,4.70
2018-09-24T09:37:42.191Z,4.83
2018-09-24T09:40:16.653Z,11.10
2018-09-24T09:42:51.586Z,6.83
2018-09-24T09:45:26.241Z,6.70
2018-09-24T09:48:02.116Z,5.13
2018-09-24T09:50:36.870Z,6.13
2018-09-24T09:53:12.618Z,3.77
2018-09-24T09:55:47.050Z,4.00
2018-09-24T09:58:21.557Z,5.30
2018-09-24T10:00:56.089Z,4.73
2018-09-24T10:03:30.993Z,6.70
2018-09-24T10:06:05.708Z,3.70
2018-09-24T10:08:44.107Z,4.37
2018-09-24T10:11:18.658Z,5.27
2018-09-24T10:13:53.339Z,5.50
2018-09-24T10:16:27.778Z,4.23
2018-09-24T10:19:02.360Z,3.83
2018-09-24T10:21:36.813Z,5.97
2018-09-24T10:24:11.743Z,5.47
2018-09-24T10:26:46.397Z,6.33
2018-09-24T10:29:20.969Z,4.63
2018-09-24T10:31:55.728Z,4.23
2018-09-24T10:34:30.201Z,4.93
2018-09-24T10:37:04.767Z,4.43
2018-09-24T10:39:39.637Z,4.13
2018-09-24T10:42:14.077Z,3.13
2018-09-24T10:44:48.569Z,4.67
2018-09-24T10:47:23.531Z,7.27
2018-09-24T10:49:58.025Z,6.13
2018-09-24T10:52:32.570Z,4.93
2018-09-24T10:55:07.164Z,5.27
2018-09-24T10:57:42.324Z,3.80
2018-09-24T11:00:17.488Z,5.13
2018-09-24T11:02:52.128Z,5.33
2018-09-24T11:05:26.761Z,4.47
2018-09-24T11:08:01.163Z,3.37
2018-09-24T11:10:35.862Z,4.17
2018-09-24T11:13:10.337Z,4.60
2018-09-24T11:15:45.415Z,3.93
2018-09-24T11:18:20.110Z,4.40
2018-09-24T11:20:54.911Z,4.10
2018-09-24T11:23:30.038Z,2.90
2018-09-24T11:26:05.561Z,3.53
2018-09-24T11:28:40.126Z,4.63
2018-09-24T11:31:14.559Z,4.57
2018-09-24T11:33:48.990Z,3.50
2018-09-24T11:36:23.526Z,3.17
2018-09-24T11:38:58.056Z,4.33
2018-09-24T11:41:32.497Z,4.77
2018-09-24T11:44:06.967Z,5.27
2018-09-24T11:46:42.291Z,4.10
2018-09-24T11:49:16.741Z,4.20
2018-09-24T11:51:51.410Z,3.40
2018-09-24T11:54:27.077Z,4.00
2018-09-24T11:57:01.842Z,5.93
2018-09-24T11:59:36.359Z,6.73
2018-09-24T12:02:11.122Z,9.37
2018-09-24T12:04:46.865Z,6.13
2018-09-24T12:07:21.537Z,7.20
2018-09-24T12:09:56.191Z,5.20
2018-09-24T12:12:30.769Z,4.03
2018-09-24T12:15:05.251Z,6.70
2018-09-24T12:17:40.334Z,4.57
2018-09-24T12:20:15.871Z,5.83
2018-09-24T12:22:50.357Z,3.00
2018-09-24T12:25:24.941Z,2.43
2018-09-24T12:27:59.301Z,2.70
2018-09-24T12:30:33.705Z,3.30
2018-09-24T12:33:08.121Z,2.63
2018-09-24T12:35:43.050Z,4.60
2018-09-24T12:38:18.333Z,2.20
2018-09-24T12:40:52.921Z,2.03
2018-09-24T12:43:28.332Z,3.60
2018-09-24T12:46:02.792Z,3.03
2018-09-24T12:48:37.376Z,3.27
2018-09-24T12:51:11.911Z,3.53
2018-09-24T12:53:46.599Z,4.03
2018-09-24T12:56:21.320Z,3.47
2018-09-24T12:58:55.826Z,2.83
2018-09-24T13:01:30.366Z,2.70
2018-09-24T13:04:04.833Z,4.27
2018-09-24T13:06:39.206Z,3.07
2018-09-24T13:09:13.863Z,1.70
2018-09-24T13:11:48.761Z,2.57
2018-09-24T13:14:23.373Z,3.40
2018-09-24T13:16:58.014Z,1.87
2018-09-24T13:19:32.515Z,3.80
2018-09-24T13:22:07.504Z,2.30
2018-09-24T13:24:42.027Z,3.80
2018-09-24T13:27:17.818Z,4.53
2018-09-24T13:29:52.458Z,3.73
2018-09-24T13:32:26.911Z,2.87
2018-09-24T13:35:01.372Z,4.27
2018-09-24T13:37:36.015Z,6.90
2018-09-24T13:40:10.506Z,5.77
2018-09-24T13:42:45.054Z,5.30
2018-09-24T13:45:19.890Z,5.33
2018-09-24T13:47:54.432Z,5.20
2018-09-24T13:50:28.859Z,6.60
2018-09-24T13:53:03.691Z,3.27
2018-09-24T13:55:38.665Z,5.63
2018-09-24T13:58:13.734Z,3.90
2018-09-24T14:00:48.325Z,4.03
2018-09-24T14:03:23.002Z,3.27
2018-09-24T14:05:57.829Z,3.47
2018-09-24T14:08:32.298Z,5.33
2018-09-24T14:11:06.757Z,3.87
2018-09-24T14:13:41.480Z,4.30
2018-09-24T14:16:16.756Z,3.47
2018-09-24T14:18:51.416Z,5.70
2018-09-24T14:21:25.971Z,4.60
2018-09-24T14:24:00.585Z,4.27
2018-09-24T14:26:37.257Z,5.07
2018-09-24T14:29:11.910Z,3.97
2018-09-24T14:31:46.259Z,5.90
2018-09-24T14:34:20.732Z,8.53
2018-09-24T14:36:55.180Z,6.47
2018-09-24T14:39:29.838Z,5.70
2018-09-24T14:42:04.351Z,4.57
2018-09-24T14:44:39.192Z,4.47
2018-09-24T14:47:13.746Z,4.27
2018-09-24T14:49:48.358Z,3.80
2018-09-24T14:52:22.932Z,5.07
2018-09-24T14:54:57.348Z,4.30
2018-09-24T14:57:32.117Z,3.63
2018-09-24T15:00:06.771Z,5.57
2018-09-24T15:02:41.267Z,8.53
2018-09-24T15:05:15.972Z,7.77
2018-09-24T15:07:51.314Z,4.53
2018-09-24T15:10:26.232Z,6.07
2018-09-24T15:13:00.844Z,4.13
2018-09-24T15:15:35.412Z,5.80
2018-09-24T15:18:09.999Z,6.27
2018-09-24T15:20:44.742Z,5.40
2018-09-24T15:23:19.298Z,5.67
2018-09-24T15:25:53.960Z,5.07
2018-09-24T15:28:28.588Z,4.33
2018-09-24T15:31:04.050Z,4.70
2018-09-24T15:33:38.580Z,6.17
2018-09-24T15:36:13.100Z,4.53
2018-09-24T15:38:47.417Z,6.13
2018-09-24T15:41:21.988Z,7.70
2018-09-24T15:43:56.340Z,7.23
2018-09-24T15:46:30.865Z,7.20
2018-09-24T15:49:05.396Z,4.70
2018-09-24T15:51:39.992Z,4.87
2018-09-24T15:54:14.400Z,4.73
2018-09-24T15:56:48.877Z,5.17
2018-09-24T15:59:23.577Z,5.27
2018-09-24T16:01:57.929Z,7.30
2018-09-24T16:04:32.700Z,5.47
2018-09-24T16:07:07.356Z,4.47
2018-09-24T16:09:43.328Z,6.97
2018-09-24T16:12:18.551Z,4.33
2018-09-24T16:14:53.106Z,6.60
2018-09-24T16:17:27.569Z,6.83
2018-09-24T16:20:01.971Z,5.33
2018-09-24T16:22:37.005Z,3.77
2018-09-24T16:25:11.657Z,5.10
2018-09-24T16:27:46.127Z,7.33
2018-09-24T16:30:20.476Z,7.00
2018-09-24T16:32:55.960Z,4.80
2018-09-24T16:35:32.027Z,5.10
2018-09-24T16:38:07.453Z,4.13
2018-09-24T16:40:42.110Z,5.00
2018-09-24T16:43:17.014Z,5.60
2018-09-24T16:45:52.589Z,4.47
2018-09-24T16:48:27.110Z,4.63
2018-09-24T16:51:01.993Z,6.67
2018-09-24T16:53:36.536Z,5.30
2018-09-24T16:56:11.700Z,6.03
2018-09-24T16:58:46.809Z,5.53
2018-09-24T17:01:21.367Z,5.73
2018-09-24T17:03:55.743Z,7.30
2018-09-24T17:06:30.190Z,7.80
2018-09-24T17:09:05.007Z,6.43
2018-09-24T17:11:40.253Z,6.10
2018-09-24T17:14:14.705Z,8.27
2018-09-24T17:16:49.180Z,6.63
2018-09-24T17:19:23.717Z,7.40
2018-09-24T17:21:58.457Z,6.63
2018-09-24T17:24:32.902Z,6.83
2018-09-24T17:27:07.352Z,6.23
2018-09-24T17:29:42.722Z,5.40
2018-09-24T17:32:17.784Z,6.60
2018-09-24T17:34:52.441Z,7.77
2018-09-24T17:37:27.552Z,7.57
2018-09-24T17:40:02.033Z,5.93
2018-09-24T17:42:38.437Z,8.47
2018-09-24T17:45:12.865Z,7.50
2018-09-24T17:47:47.426Z,5.10
2018-09-24T17:50:23.168Z,4.27
2018-09-24T17:52:57.723Z,8.43
2018-09-24T17:55:32.355Z,5.97
2018-09-24T17:58:07.392Z,4.63
2018-09-24T18:00:42.329Z,5.07
2018-09-24T18:03:16.868Z,9.13
2018-09-24T18:05:51.446Z,6.50
2018-09-24T18:08:26.409Z,4.10
2018-09-24T18:11:00.959Z,5.00
2018-09-24T18:13:35.983Z,3.93
2018-09-24T18:16:10.409Z,4.07
2018-09-24T18:18:45.100Z,8.20
2018-09-24T18:21:20.078Z,5.10
2018-09-24T18:23:54.946Z,6.60
2018-09-24T18:26:29.517Z,16.70
2018-09-24T18:29:03.957Z,8.63
2018-09-24T18:31:38.425Z,9.83
2018-09-24T18:34:13.659Z,7.70
2018-09-24T18:36:48.192Z,6.73
2018-09-24T18:39:22.728Z,8.17
2018-09-24T18:41:58.744Z,7.67
2018-09-24T18:44:34.777Z,6.27
2018-09-24T18:47:09.389Z,6.67
2018-09-24T18:49:43.931Z,6.63
2018-09-24T18:52:18.314Z,5.50
2018-09-24T18:54:53.132Z,5.70
2018-09-24T18:57:27.817Z,7.60
2018-09-24T19:00:02.364Z,7.30
2018-09-24T19:02:36.766Z,7.33
2018-09-24T19:05:11.329Z,5.40
2018-09-24T19:07:45.880Z,5.17
2018-09-24T19:10:20.655Z,5.77
2018-09-24T19:12:55.451Z,8.37
2018-09-24T19:15:29.995Z,4.80
2018-09-24T19:18:04.615Z,4.93
2018-09-24T19:20:39.194Z,4.40
2018-09-24T19:23:13.746Z,4.23
2018-09-24T19:25:48.290Z,3.93
2018-09-24T19:28:23.454Z,4.00
2018-09-24T19:30:58.348Z,3.50
2018-09-24T19:33:32.975Z,6.17
2018-09-24T19:36:07.477Z,5.70
2018-09-24T19:38:41.988Z,6.50
2018-09-24T19:41:16.652Z,3.23
2018-09-24T19:43:51.204Z,5.27
2018-09-24T19:46:25.742Z,4.33
2018-09-24T19:49:01.219Z,3.57
2018-09-24T19:51:35.699Z,5.47
2018-09-24T19:54:10.121Z,5.00
2018-09-24T19:56:45.886Z,3.70
2018-09-24T19:59:20.448Z,5.20
2018-09-24T20:01:55.048Z,6.27
2018-09-24T20:04:29.364Z,5.70
2018-09-24T20:07:03.728Z,5.27
2018-09-24T20:09:38.415Z,3.63
2018-09-24T20:12:12.927Z,6.03
2018-09-24T20:14:47.677Z,5.70
2018-09-24T20:17:22.792Z,6.63
2018-09-24T20:19:57.330Z,5.70
2018-09-24T20:22:31.709Z,7.77
2018-09-24T20:25:07.855Z,6.13
2018-09-24T20:27:42.265Z,7.13
2018-09-24T20:30:17.139Z,7.87
2018-09-24T20:32:51.808Z,7.77
2018-09-24T20:35:27.301Z,8.00
2018-09-24T20:38:01.889Z,11.37
2018-09-24T20:40:36.370Z,11.57
2018-09-24T20:43:11.180Z,9.47
2018-09-24T20:45:45.630Z,9.67
2018-09-24T20:48:20.063Z,8.73
2018-09-24T20:50:54.374Z,8.30
2018-09-24T20:53:28.973Z,7.27
2018-09-24T20:56:03.388Z,6.97
2018-09-24T20:58:38.680Z,8.33
2018-09-24T21:01:13.549Z,8.10
2018-09-24T21:03:48.337Z,6.53
2018-09-24T21:06:23.076Z,9.80
2018-09-24T21:08:57.922Z,10.70
2018-09-24T21:11:34.266Z,9.83
2018-09-24T21:14:10.569Z,9.80
2018-09-24T21:16:46.468Z,10.50
2018-09-24T21:19:20.841Z,10.87
2018-09-24T21:21:55.364Z,9.60
2018-09-24T21:24:30.899Z,8.57
2018-09-24T21:27:05.300Z,7.37
2018-09-24T21:29:39.774Z,9.40
2018-09-24T21:32:14.317Z,7.73
2018-09-24T21:34:48.833Z,10.00
2018-09-24T21:37:23.300Z,11.37
2018-09-24T21:39:57.731Z,8.40
2018-09-24T21:42:39.283Z,11.13
2018-09-24T21:45:13.889Z,8.80
2018-09-24T21:47:48.347Z,12.88
2018-09-24T21:50:22.831Z,11.10
2018-09-24T21:52:57.259Z,11.53
2018-09-24T21:55:32.134Z,11.73
2018-09-24T21:58:06.549Z,11.17
2018-09-24T22:00:41.165Z,9.10
2018-09-24T22:03:15.630Z,10.53
2018-09-24T22:05:50.203Z,9.93
2018-09-24T22:08:24.557Z,8.73
2018-09-24T22:10:59.109Z,7.80
2018-09-24T22:13:33.430Z,9.33
2018-09-24T22:16:08.012Z,9.23
2018-09-24T22:18:42.645Z,9.53
2018-09-24T22:21:17.080Z,8.80
2018-09-24T22:23:52.322Z,10.47
2018-09-24T22:26:26.812Z,9.33
2018-09-24T22:29:01.269Z,10.70
2018-09-24T22:31:35.812Z,9.80
2018-09-24T22:34:10.385Z,8.53
2018-09-24T22:36:44.957Z,9.07
2018-09-24T22:39:19.484Z,8.63
2018-09-24T22:41:53.817Z,8.63
2018-09-24T22:44:28.398Z,7.97
2018-09-24T22:47:03.055Z,7.97
2018-09-24T22:49:37.647Z,8.30
2018-09-24T22:52:12.053Z,6.70
2018-09-24T22:54:46.502Z,9.60
2018-09-24T22:57:21.089Z,7.67
2018-09-24T22:59:55.711Z,6.73
2018-09-24T23:02:30.276Z,8.07
2018-09-24T23:05:05.138Z,7.63
2018-09-24T23:07:40.833Z,8.13
2018-09-24T23:10:15.209Z,7.73
2018-09-24T23:12:49.649Z,8.30
2018-09-24T23:15:24.268Z,8.50
2018-09-24T23:17:58.786Z,6.53
2018-09-24T23:20:33.212Z,6.23
2018-09-24T23:23:07.601Z,6.67
2018-09-24T23:25:42.032Z,8.10
2018-09-24T23:28:17.141Z,8.20
2018-09-24T23:30:51.483Z,6.50
2018-09-24T23:33:25.918Z,7.80
2018-09-24T23:36:00.376Z,7.13
2018-09-24T23:38:34.999Z,7.93
2018-09-24T23:41:09.593Z,9.10
2018-09-24T23:43:44.628Z,7.67
2018-09-24T23:46:19.113Z,6.43
2018-09-24T23:48:53.680Z,8.07
2018-09-24T23:51:27.994Z,8.80
2018-09-24T23:54:02.742Z,7.37
2018-09-24T23:56:37.079Z,8.50
2018-09-24T23:59:11.547Z,10.00
